Millersville, Ohio
Current Conditions -  °F | °C
As of 11:53 AM on Friday 28 Nov 2014 (Local Time) from KTDZ Reporting Station
Few Clouds Few Clouds  
Wind Chill: 17°   Ceiling: Unl
Heat Index: 26°   Visibility: 10mi
Dew Point: 16°   Wind: 9mph
Humidity: 66%   Direction: 200°SSW
Pressure: 30.31"   Gusts: NA
Location:  41.324°N, 83.3168°W
Report Text: KTDZ 281653Z AUTO 20008KT 10SM FEW023 M03/M09 A3031 RMK AO2 SLP272 T10331089 TSNO
Loading
Personal Weather Stations






























Interactive Weather Map New forecast layout! Learn more

10-Day Weather Forecast

Advertisements
Track Severe Weather on mobile